Time,TemperatureF,DewpointF,PressureIn,WindDirection,WindDirectionDegrees,WindSpeedMPH,WindSpeedGustMPH,Humidity,HourlyPrecipIn,Conditions,Clouds,dailyrainin,SoftwareType,DateUTC
2016-07-30 00:00:00,67.0,64.0,29.85,WNW,292,-999.9,-999.0,90,-99.99,,,-99.99,,2016-07-30 04:00:00,
2016-07-30 00:11:00,67.0,64.0,29.85,North,-9999,-999.9,-999.0,90,-99.99,,,-99.99,,2016-07-30 04:11:00,
2016-07-30 00:21:00,67.0,64.0,29.85,WNW,292,0.0,-999.0,90,-99.99,,,-99.99,,2016-07-30 04:21:00,
2016-07-30 01:13:00,67.0,62.0,29.88,North,-9999,-999.9,-999.0,84,-99.99,,,-99.99,,2016-07-30 05:13:00,
2016-07-30 01:23:00,67.0,62.0,29.88,WNW,292,0.0,-999.0,84,-99.99,,,-99.99,,2016-07-30 05:23:00,
2016-07-30 01:43:00,68.0,62.0,29.88,North,-9999,-999.9,-999.0,80,-99.99,,,-99.99,,2016-07-30 05:43:00,
2016-07-30 02:13:00,68.0,61.0,29.88,NW,320,0.0,-999.0,77,-99.99,,,-99.99,,2016-07-30 06:13:00,
2016-07-30 02:27:00,68.0,59.0,29.88,WNW,292,0.0,1.0,73,-99.99,,,-99.99,,2016-07-30 06:27:00,
2016-07-30 02:36:00,68.0,59.0,29.88,WNW,292,0.0,1.0,73,-99.99,,,-99.99,,2016-07-30 06:36:00,
2016-07-30 02:48:00,68.0,59.0,29.85,West,270,0.0,1.0,73,-99.99,,,-99.99,,2016-07-30 06:48:00,
2016-07-30 02:55:00,67.0,58.0,29.88,West,270,0.0,1.0,73,-99.99,,,-99.99,,2016-07-30 06:55:00,
2016-07-30 03:07:00,67.0,58.0,29.88,WSW,248,0.0,0.0,73,-99.99,,,-99.99,,2016-07-30 07:07:00,
2016-07-30 03:17:00,67.0,58.0,29.88,WSW,248,0.0,0.0,73,-99.99,,,-99.99,,2016-07-30 07:17:00,
2016-07-30 03:29:00,67.0,58.0,29.88,WSW,248,0.0,0.0,73,-99.99,,,-99.99,,2016-07-30 07:29:00,
2016-07-30 03:39:00,67.0,58.0,29.88,WSW,248,0.0,0.0,73,-99.99,,,-99.99,,2016-07-30 07:39:00,
2016-07-30 03:46:00,66.0,58.0,29.88,WSW,248,0.0,0.0,75,-99.99,,,-99.99,,2016-07-30 07:46:00,
2016-07-30 03:54:00,66.0,58.0,29.88,WSW,248,0.0,1.0,75,-99.99,,,-99.99,,2016-07-30 07:54:00,
2016-07-30 04:05:00,65.0,57.0,29.91,WSW,248,0.0,1.0,76,-99.99,,,-99.99,,2016-07-30 08:05:00,
2016-07-30 04:14:00,65.0,57.0,29.91,WSW,248,0.0,0.0,76,-99.99,,,-99.99,,2016-07-30 08:14:00,
2016-07-30 04:23:00,65.0,58.0,29.91,WSW,248,0.0,1.0,77,-99.99,,,-99.99,,2016-07-30 08:23:00,
2016-07-30 04:34:00,64.0,57.0,29.91,WSW,248,0.0,0.0,79,-99.99,,,-99.99,,2016-07-30 08:34:00,
2016-07-30 04:47:00,64.0,58.0,29.91,WSW,245,0.0,0.0,81,-99.99,,,-99.99,,2016-07-30 08:47:00,
2016-07-30 04:54:00,64.0,58.0,29.91,WSW,245,0.0,0.0,81,-99.99,,,-99.99,,2016-07-30 08:54:00,
2016-07-30 05:04:00,64.0,58.0,29.91,WSW,248,0.0,1.0,82,-99.99,,,-99.99,,2016-07-30 09:04:00,
2016-07-30 05:14:00,64.0,58.0,29.91,WSW,248,0.0,0.0,82,-99.99,,,-99.99,,2016-07-30 09:14:00,
2016-07-30 05:23:00,63.0,58.0,29.91,WNW,292,1.0,1.0,83,-99.99,,,-99.99,,2016-07-30 09:23:00,
2016-07-30 05:41:00,64.0,59.0,29.94,WSW,248,1.0,-999.0,83,-99.99,,,-99.99,,2016-07-30 09:41:00,
2016-07-30 06:11:00,64.0,58.0,29.94,West,270,1.0,-999.0,82,-99.99,,,-99.99,,2016-07-30 10:11:00,
2016-07-30 06:21:00,64.0,58.0,29.94,WNW,292,0.0,-999.0,81,-99.99,,,-99.99,,2016-07-30 10:21:00,
2016-07-30 06:33:00,64.0,58.0,29.94,WNW,292,0.0,-999.0,82,-99.99,,,-99.99,,2016-07-30 10:33:00,
2016-07-30 06:41:00,64.0,58.0,29.94,WNW,292,-999.9,-999.0,82,-99.99,,,-99.99,,2016-07-30 10:41:00,
2016-07-30 07:02:00,64.0,59.0,29.94,WNW,292,0.0,-999.0,84,-99.99,,,-99.99,,2016-07-30 11:02:00,
2016-07-30 07:13:00,64.0,59.0,29.94,WNW,292,0.0,-999.0,84,-99.99,,,-99.99,,2016-07-30 11:13:00,
2016-07-30 07:23:00,64.0,59.0,29.94,WNW,292,0.0,-999.0,85,-99.99,,,-99.99,,2016-07-30 11:23:00,
2016-07-30 07:32:00,66.0,61.0,29.94,WNW,292,0.0,-999.0,85,-99.99,,,-99.99,,2016-07-30 11:32:00,
2016-07-30 07:43:00,66.0,61.0,29.94,WNW,292,0.0,-999.0,85,-99.99,,,-99.99,,2016-07-30 11:43:00,
2016-07-30 07:57:00,66.0,61.0,29.94,WNW,292,0.0,1.0,85,-99.99,,,-99.99,,2016-07-30 11:57:00,
2016-07-30 08:39:00,71.0,57.0,30.00,WNW,296,2.0,3.0,61,-99.99,,,-99.99,,2016-07-30 12:39:00,
2016-07-30 08:50:00,71.0,56.0,30.00,North,0,1.0,3.0,59,-99.99,,,-99.99,,2016-07-30 12:50:00,
2016-07-30 08:56:00,71.0,56.0,30.00,North,0,1.0,3.0,59,-99.99,,,-99.99,,2016-07-30 12:56:00,
2016-07-30 09:11:00,71.0,55.0,30.00,NW,321,2.0,2.0,58,-99.99,,,-99.99,,2016-07-30 13:11:00,
2016-07-30 09:25:00,71.0,55.0,30.00,ENE,74,0.0,5.0,58,-99.99,,,-99.99,,2016-07-30 13:25:00,
2016-07-30 09:35:00,72.0,54.0,30.00,NW,316,2.0,6.0,54,-99.99,,,-99.99,,2016-07-30 13:35:00,
2016-07-30 09:49:00,72.0,54.0,30.00,SE,138,2.0,5.0,53,-99.99,,,-99.99,,2016-07-30 13:49:00,
2016-07-30 09:54:00,72.0,54.0,30.00,SE,138,2.0,5.0,53,-99.99,,,-99.99,,2016-07-30 13:54:00,
2016-07-30 10:04:00,72.0,54.0,29.98,SW,229,1.0,3.0,53,-99.99,,,-99.99,,2016-07-30 14:04:00,
2016-07-30 10:15:00,73.0,55.0,29.97,NE,56,1.0,5.0,53,-99.99,,,-99.99,,2016-07-30 14:15:00,
2016-07-30 10:24:00,73.0,55.0,29.97,NE,56,1.0,5.0,53,-99.99,,,-99.99,,2016-07-30 14:24:00,
2016-07-30 10:34:00,74.0,55.0,29.97,West,273,2.0,6.0,52,-99.99,,,-99.99,,2016-07-30 14:34:00,
2016-07-30 10:44:00,74.0,55.0,29.97,West,273,2.0,6.0,52,-99.99,,,-99.99,,2016-07-30 14:44:00,
2016-07-30 11:04:00,75.0,56.0,29.97,SSE,168,2.0,3.0,51,-99.99,,,-99.99,,2016-07-30 15:04:00,
2016-07-30 11:24:00,75.0,55.0,29.97,East,90,1.0,6.0,50,-99.99,,,-99.99,,2016-07-30 15:24:00,
2016-07-30 11:41:00,76.0,54.0,29.97,ENE,78,-999.9,-999.0,47,-99.99,,,-99.99,,2016-07-30 15:41:00,
2016-07-30 12:00:00,76.0,55.0,29.97,SE,130,1.0,-999.0,48,-99.99,,,-99.99,,2016-07-30 16:00:00,
2016-07-30 12:21:00,76.0,54.0,29.97,East,82,1.0,-999.0,46,-99.99,,,-99.99,,2016-07-30 16:21:00,
2016-07-30 12:33:00,76.0,54.0,29.97,East,82,-999.9,-999.0,46,-99.99,,,-99.99,,2016-07-30 16:33:00,
2016-07-30 13:23:00,79.0,55.0,29.94,East,96,2.0,-999.0,43,-99.99,,,-99.99,,2016-07-30 17:23:00,
2016-07-30 13:32:00,79.0,55.0,29.94,East,96,2.0,-999.0,43,-99.99,,,-99.99,,2016-07-30 17:32:00,
2016-07-30 13:45:00,79.0,55.0,29.94,ENE,74,1.0,-999.0,43,-99.99,,,-99.99,,2016-07-30 17:45:00,
2016-07-30 13:53:00,79.0,55.0,29.94,ENE,74,1.0,-999.0,43,-99.99,,,-99.99,,2016-07-30 17:53:00,
2016-07-30 14:06:00,80.0,55.0,29.94,WNW,296,2.0,-999.0,43,-99.99,,,-99.99,,2016-07-30 18:06:00,
2016-07-30 14:13:00,80.0,55.0,29.94,WNW,296,2.0,-999.0,43,-99.99,,,-99.99,,2016-07-30 18:13:00,
2016-07-30 14:22:00,80.0,55.0,29.94,ENE,76,1.0,-999.0,42,-99.99,,,-99.99,,2016-07-30 18:22:00,
2016-07-30 14:29:00,80.0,55.0,29.94,ENE,77,1.0,2.0,42,-99.99,,,-99.99,,2016-07-30 18:29:00,
2016-07-30 14:37:00,81.0,56.0,29.94,ESE,112,0.0,3.0,42,-99.99,,,-99.99,,2016-07-30 18:37:00,
2016-07-30 14:46:00,80.0,55.0,29.94,North,350,1.0,3.0,42,-99.99,,,-99.99,,2016-07-30 18:46:00,
2016-07-30 14:55:00,80.0,55.0,29.94,North,350,1.0,3.0,42,-99.99,,,-99.99,,2016-07-30 18:55:00,
2016-07-30 15:16:00,81.0,56.0,29.94,WSW,257,0.0,2.0,42,-99.99,,,-99.99,,2016-07-30 19:16:00,
2016-07-30 15:26:00,81.0,56.0,29.94,WSW,257,0.0,2.0,42,-99.99,,,-99.99,,2016-07-30 19:26:00,
2016-07-30 15:47:00,80.0,55.0,29.91,SW,225,0.0,-999.0,43,-99.99,,,-99.99,,2016-07-30 19:47:00,
2016-07-30 15:54:00,80.0,55.0,29.91,SW,225,0.0,0.0,43,-99.99,,,-99.99,,2016-07-30 19:54:00,
2016-07-30 16:04:00,80.0,55.0,29.91,SW,225,0.0,0.0,43,-99.99,,,-99.99,,2016-07-30 20:04:00,
2016-07-30 16:14:00,80.0,55.0,29.91,SW,225,0.0,0.0,43,-99.99,,,-99.99,,2016-07-30 20:14:00,
2016-07-30 16:24:00,81.0,56.0,29.91,NNW,344,0.0,2.0,42,-99.99,,,-99.99,,2016-07-30 20:24:00,
2016-07-30 16:36:00,82.0,57.0,29.91,NNW,333,1.0,2.0,42,-99.99,,,-99.99,,2016-07-30 20:36:00,
2016-07-30 16:45:00,82.0,57.0,29.91,NNW,333,1.0,2.0,42,-99.99,,,-99.99,,2016-07-30 20:45:00,
2016-07-30 16:55:00,82.0,56.0,29.91,ESE,112,1.0,2.0,41,-99.99,,,-99.99,,2016-07-30 20:55:00,
2016-07-30 17:04:00,82.0,56.0,29.91,ESE,112,1.0,2.0,41,-99.99,,,-99.99,,2016-07-30 21:04:00,
2016-07-30 17:14:00,82.0,56.0,29.91,ESE,112,1.0,2.0,41,-99.99,,,-99.99,,2016-07-30 21:14:00,
2016-07-30 17:51:00,83.0,56.0,29.88,WNW,303,1.0,-999.0,40,-99.99,,,-99.99,,2016-07-30 21:51:00,
2016-07-30 18:21:00,82.0,55.0,29.91,South,180,0.0,-999.0,40,-99.99,,,-99.99,,2016-07-30 22:21:00,
2016-07-30 18:31:00,81.0,55.0,29.91,SE,135,0.0,-999.0,41,-99.99,,,-99.99,,2016-07-30 22:31:00,
2016-07-30 18:41:00,81.0,55.0,29.91,North,-9999,-999.9,-999.0,41,-99.99,,,-99.99,,2016-07-30 22:41:00,
2016-07-30 18:52:00,79.0,55.0,29.91,South,180,0.0,-999.0,43,-99.99,,,-99.99,,2016-07-30 22:52:00,
2016-07-30 19:13:00,78.0,56.0,29.94,South,180,-999.9,-999.0,46,-99.99,,,-99.99,,2016-07-30 23:13:00,
2016-07-30 19:24:00,77.0,57.0,29.94,South,180,0.0,-999.0,50,-99.99,,,-99.99,,2016-07-30 23:24:00,
2016-07-30 19:43:00,77.0,57.0,29.94,South,180,0.0,-999.0,50,-99.99,,,-99.99,,2016-07-30 23:43:00,
2016-07-30 20:00:00,74.0,56.0,29.91,WNW,292,0.0,0.0,53,-99.99,,,-99.99,,2016-07-31 00:00:00,
2016-07-30 20:11:00,74.0,56.0,29.91,WNW,292,0.0,-999.0,53,-99.99,,,-99.99,,2016-07-31 00:11:00,
2016-07-30 20:26:00,73.0,56.0,29.94,WNW,292,0.0,1.0,55,-99.99,,,-99.99,,2016-07-31 00:26:00,